Diane G — DIANEG — position and weather

sailwx.info

Track history (hours):
 
Tides and Currents Weather Stations Pressure Air Temp Water Temp Dewpoint Dewpoint Depression Visibility Wind Speed Wind Dir Waves Ship Positions

Diane G

Last reported at 2015-Aug-19 01:32 UTC. Time now 2015-Aug-28 02:16 UTC.
Position N 33°27' W 119°55'.
Warning: this ship's position is 9 days out of date.

Length 35 m; draft 2.5 m.

Type: Military. MMSI: 369970275.

Date/timePositionNaut miles runAvg speedWind from/ knotsBaromVisibWave heightAir tempDewpointWater temp
2015-Aug-19 01:32N 33°27' W 119°55'2 1.8
2015-Aug-19 00:32N 33°26' W 119°54'6 6.1
2015-Aug-18 23:34N 33°23' W 119°48'1 0.6
2015-Aug-18 22:33N 33°23' W 119°48'2 1.6
2015-Aug-18 21:33N 33°23' W 119°50'9 8.6
2015-Aug-18 20:33N 33°27' W 119°60'4 3.9
2015-Aug-18 19:33N 33°29' W 120°04'1 0.8
2015-Aug-18 18:32N 33°29' W 120°03'1 1.4
2015-Aug-18 17:32N 33°28' W 120°02'1 0.6
2015-Aug-18 16:33N 33°28' W 120°02'8 7.9
2015-Aug-18 15:33N 33°21' W 119°58'6 5.6
2015-Aug-18 14:34N 33°15' W 119°57'1 0.8
2015-Aug-18 13:34N 33°16' W 119°57'1 0.7
2015-Aug-18 12:33N 33°17' W 119°57'1 0.7
2015-Aug-18 11:34N 33°17' W 119°58'1 0.5
2015-Aug-18 10:33N 33°18' W 119°58'1 0.8
2015-Aug-18 09:33N 33°19' W 119°57'1 0.8
2015-Aug-18 08:30N 33°20' W 119°57'1 1.0
2015-Aug-18 07:33N 33°21' W 119°57'1 1.1
2015-Aug-18 06:34N 33°22' W 119°57'1 1.2
2015-Aug-18 05:33N 33°23' W 119°57'2 1.5
2015-Aug-18 04:30N 33°24' W 119°57'1 1.7
2015-Aug-18 04:10N 33°25' W 119°58'0 1.4
2015-Aug-18 04:09N 33°25' W 119°58'1 1.7
2015-Aug-18 03:24N 33°26' W 119°59'3 1.5
2015-Aug-18 01:31N 33°27' W 120°02'6 5.8
2015-Aug-18 00:34N 33°25' W 119°55'6 5.8
2015-Aug-17 23:33N 33°23' W 119°49'0 0.4
2015-Aug-17 22:34N 33°23' W 119°48'3 2.9
2015-Aug-17 21:33N 33°23' W 119°52'5 5.4
2015-Aug-17 20:33N 33°25' W 119°58'1 1.2
2015-Aug-17 19:33N 33°26' W 119°58'1 0.8
2015-Aug-17 18:33N 33°27' W 119°58'1 1.1
2015-Aug-17 17:33N 33°26' W 119°60'3 2.9
2015-Aug-17 16:34N 33°28' W 120°02'1 1.4
2015-Aug-17 15:33N 33°30' W 120°02'8 7.7
2015-Aug-17 14:31N 33°34' W 120°10'6 6.6
2015-Aug-17 13:33N 33°40' W 120°14'15 3.1
2015-Aug-17 08:33N 33°52' W 120°02'6 6.3
2015-Aug-17 07:33N 33°51' W 119°54'7 6.8
2015-Aug-17 06:33N 33°55' W 119°48'7 7.3
2015-Aug-17 05:33N 33°56' W 119°39'7 6.9
2015-Aug-17 04:32N 33°58' W 119°31'7 6.8
2015-Aug-17 03:33N 34°02' W 119°25'8 6.8
2015-Aug-17 02:20N 34°07' W 119°17'4 0.6
2015-Aug-16 18:26N 34°09' W 119°12'0 0.0
2015-Aug-16 17:33N 34°09' W 119°12'  
2015-Aug-14 07:14N 34°09' W 119°13'4 0.9
2015-Aug-14 02:15N 34°05' W 119°14'1 1.2
2015-Aug-14 01:12N 34°06' W 119°16'5 8.4
2015-Aug-14 00:32N 34°01' W 119°20'8 7.8
2015-Aug-13 23:32N 33°54' W 119°21'8 7.7
2015-Aug-13 22:33N 33°46' W 119°23'4 3.5
2015-Aug-13 21:33N 33°47' W 119°19'1 0.8
2015-Aug-13 20:33N 33°47' W 119°19'4 4.0
2015-Aug-13 19:33N 33°48' W 119°15'8 7.6
2015-Aug-13 18:32N 33°50' W 119°06'1 1.2
2015-Aug-13 17:25N 33°51' W 119°06'2 2.7
2015-Aug-13 16:34N 33°52' W 119°08'1 0.8
2015-Aug-13 15:33N 33°53' W 119°09'2 2.4
2015-Aug-13 14:34N 33°52' W 119°11'1 1.3
2015-Aug-13 13:34N 33°53' W 119°12'1 0.7
2015-Aug-13 12:31N 33°54' W 119°12'2 1.9
2015-Aug-13 11:34N 33°55' W 119°13'9 8.9
2015-Aug-13 10:33N 34°03' W 119°19'8 0.7
2015-Aug-12 22:32N 34°09' W 119°13'6 5.8
2015-Aug-12 21:33N 34°04' W 119°14'9 9.0
2015-Aug-12 20:33N 33°55' W 119°15'8 7.9
2015-Aug-12 19:31N 33°46' W 119°14'3 3.1
2015-Aug-12 18:27N 33°46' W 119°18'1 0.9
2015-Aug-12 17:27N 33°46' W 119°19'0 0.2
2015-Aug-12 15:32N 33°45' W 119°20'2 1.3
2015-Aug-12 14:21N 33°45' W 119°18'0 0.3
2015-Aug-12 13:33N 33°45' W 119°18'0 0.3
2015-Aug-12 12:20N 33°46' W 119°18'16 5.7
2015-Aug-12 09:28N 34°02' W 119°14'  
2015-Aug-09 04:15N 34°10' W 119°29'  
Track history (hours):
 
Tides and Currents Weather Stations Pressure Air Temp Water Temp Dewpoint Dewpoint Depression Visibility Wind Speed Wind Dir Waves Ship Positions

Diane G

Last reported at 2015-Aug-19 01:32 UTC. Time now 2015-Aug-28 02:16 UTC.
Position N 33°27' W 119°55'.
Warning: this ship's position is 9 days out of date.

Length 35 m; draft 2.5 m.

Type: Military. MMSI: 369970275.

Date/timePositionNaut miles runAvg speedWind from/ knotsBaromVisibWave heightAir tempDewpointWater temp
2015-Aug-19 01:32N 33°27' W 119°55'2 1.8
2015-Aug-19 00:32N 33°26' W 119°54'6 6.1
2015-Aug-18 23:34N 33°23' W 119°48'1 0.6
2015-Aug-18 22:33N 33°23' W 119°48'2 1.6
2015-Aug-18 21:33N 33°23' W 119°50'9 8.6
2015-Aug-18 20:33N 33°27' W 119°60'4 3.9
2015-Aug-18 19:33N 33°29' W 120°04'1 0.8
2015-Aug-18 18:32N 33°29' W 120°03'1 1.4
2015-Aug-18 17:32N 33°28' W 120°02'1 0.6
2015-Aug-18 16:33N 33°28' W 120°02'8 7.9
2015-Aug-18 15:33N 33°21' W 119°58'6 5.6
2015-Aug-18 14:34N 33°15' W 119°57'1 0.8
2015-Aug-18 13:34N 33°16' W 119°57'1 0.7
2015-Aug-18 12:33N 33°17' W 119°57'1 0.7
2015-Aug-18 11:34N 33°17' W 119°58'1 0.5
2015-Aug-18 10:33N 33°18' W 119°58'1 0.8
2015-Aug-18 09:33N 33°19' W 119°57'1 0.8
2015-Aug-18 08:30N 33°20' W 119°57'1 1.0
2015-Aug-18 07:33N 33°21' W 119°57'1 1.1
2015-Aug-18 06:34N 33°22' W 119°57'1 1.2
2015-Aug-18 05:33N 33°23' W 119°57'2 1.5
2015-Aug-18 04:30N 33°24' W 119°57'1 1.7
2015-Aug-18 04:10N 33°25' W 119°58'0 1.4
2015-Aug-18 04:09N 33°25' W 119°58'1 1.7
2015-Aug-18 03:24N 33°26' W 119°59'3 1.5
2015-Aug-18 01:31N 33°27' W 120°02'6 5.8
2015-Aug-18 00:34N 33°25' W 119°55'6 5.8
2015-Aug-17 23:33N 33°23' W 119°49'0 0.4
2015-Aug-17 22:34N 33°23' W 119°48'3 2.9
2015-Aug-17 21:33N 33°23' W 119°52'5 5.4
2015-Aug-17 20:33N 33°25' W 119°58'1 1.2
2015-Aug-17 19:33N 33°26' W 119°58'1 0.8
2015-Aug-17 18:33N 33°27' W 119°58'1 1.1
2015-Aug-17 17:33N 33°26' W 119°60'3 2.9
2015-Aug-17 16:34N 33°28' W 120°02'1 1.4
2015-Aug-17 15:33N 33°30' W 120°02'8 7.7
2015-Aug-17 14:31N 33°34' W 120°10'6 6.6
2015-Aug-17 13:33N 33°40' W 120°14'15 3.1
2015-Aug-17 08:33N 33°52' W 120°02'6 6.3
2015-Aug-17 07:33N 33°51' W 119°54'7 6.8
2015-Aug-17 06:33N 33°55' W 119°48'7 7.3
2015-Aug-17 05:33N 33°56' W 119°39'7 6.9
2015-Aug-17 04:32N 33°58' W 119°31'7 6.8
2015-Aug-17 03:33N 34°02' W 119°25'8 6.8
2015-Aug-17 02:20N 34°07' W 119°17'4 0.6
2015-Aug-16 18:26N 34°09' W 119°12'0 0.0
2015-Aug-16 17:33N 34°09' W 119°12'  
2015-Aug-14 07:14N 34°09' W 119°13'4 0.9
2015-Aug-14 02:15N 34°05' W 119°14'1 1.2
2015-Aug-14 01:12N 34°06' W 119°16'5 8.4
2015-Aug-14 00:32N 34°01' W 119°20'8 7.8
2015-Aug-13 23:32N 33°54' W 119°21'8 7.7
2015-Aug-13 22:33N 33°46' W 119°23'4 3.5
2015-Aug-13 21:33N 33°47' W 119°19'1 0.8
2015-Aug-13 20:33N 33°47' W 119°19'4 4.0
2015-Aug-13 19:33N 33°48' W 119°15'8 7.6
2015-Aug-13 18:32N 33°50' W 119°06'1 1.2
2015-Aug-13 17:25N 33°51' W 119°06'2 2.7
2015-Aug-13 16:34N 33°52' W 119°08'1 0.8
2015-Aug-13 15:33N 33°53' W 119°09'2 2.4
2015-Aug-13 14:34N 33°52' W 119°11'1 1.3
2015-Aug-13 13:34N 33°53' W 119°12'1 0.7
2015-Aug-13 12:31N 33°54' W 119°12'2 1.9
2015-Aug-13 11:34N 33°55' W 119°13'9 8.9
2015-Aug-13 10:33N 34°03' W 119°19'8 0.7
2015-Aug-12 22:32N 34°09' W 119°13'6 5.8
2015-Aug-12 21:33N 34°04' W 119°14'9 9.0
2015-Aug-12 20:33N 33°55' W 119°15'8 7.9
2015-Aug-12 19:31N 33°46' W 119°14'3 3.1
2015-Aug-12 18:27N 33°46' W 119°18'1 0.9
2015-Aug-12 17:27N 33°46' W 119°19'0 0.2
2015-Aug-12 15:32N 33°45' W 119°20'2 1.3
2015-Aug-12 14:21N 33°45' W 119°18'0 0.3
2015-Aug-12 13:33N 33°45' W 119°18'0 0.3
2015-Aug-12 12:20N 33°46' W 119°18'16 5.7
2015-Aug-12 09:28N 34°02' W 119°14'  
2015-Aug-09 04:15N 34°10' W 119°29'  

Dump ship's entire track history